sensor_id;sensor_type;location;lat;lon;timestamp;P1;durP1;ratioP1;P2;durP2;ratioP2
37907;SDS011;23740;51.550;6.846;2023-05-07T00:00:58;30.13;;;27.83;;
37907;SDS011;23740;51.550;6.846;2023-05-07T00:03:26;30.45;;;28.02;;
37907;SDS011;23740;51.550;6.846;2023-05-07T00:05:56;30.65;;;28.08;;
37907;SDS011;23740;51.550;6.846;2023-05-07T00:08:24;30.63;;;28.10;;
37907;SDS011;23740;51.550;6.846;2023-05-07T00:10:52;30.35;;;28.00;;
37907;SDS011;23740;51.550;6.846;2023-05-07T00:13:20;33.20;;;30.23;;
37907;SDS011;23740;51.550;6.846;2023-05-07T00:15:48;30.88;;;28.48;;
37907;SDS011;23740;51.550;6.846;2023-05-07T00:18:16;30.40;;;27.80;;
37907;SDS011;23740;51.550;6.846;2023-05-07T00:20:47;31.55;;;29.13;;
37907;SDS011;23740;51.550;6.846;2023-05-07T00:23:16;30.95;;;28.45;;
37907;SDS011;23740;51.550;6.846;2023-05-07T00:25:44;30.13;;;27.73;;
37907;SDS011;23740;51.550;6.846;2023-05-07T00:28:12;30.98;;;28.42;;
37907;SDS011;23740;51.550;6.846;2023-05-07T00:30:39;31.45;;;28.67;;
37907;SDS011;23740;51.550;6.846;2023-05-07T00:33:07;31.27;;;28.55;;
37907;SDS011;23740;51.550;6.846;2023-05-07T00:35:35;29.65;;;27.33;;
37907;SDS011;23740;51.550;6.846;2023-05-07T00:38:05;29.70;;;27.27;;
37907;SDS011;23740;51.550;6.846;2023-05-07T00:40:34;28.98;;;26.77;;
37907;SDS011;23740;51.550;6.846;2023-05-07T00:45:30;30.48;;;27.83;;
37907;SDS011;23740;51.550;6.846;2023-05-07T00:47:59;29.98;;;27.40;;
37907;SDS011;23740;51.550;6.846;2023-05-07T00:50:28;29.95;;;27.50;;
37907;SDS011;23740;51.550;6.846;2023-05-07T00:52:56;28.92;;;26.60;;
37907;SDS011;23740;51.550;6.846;2023-05-07T00:55:26;31.13;;;28.38;;
37907;SDS011;23740;51.550;6.846;2023-05-07T00:57:55;30.63;;;28.05;;
37907;SDS011;23740;51.550;6.846;2023-05-07T01:00:23;31.05;;;28.65;;
37907;SDS011;23740;51.550;6.846;2023-05-07T01:02:51;31.13;;;27.92;;
37907;SDS011;23740;51.550;6.846;2023-05-07T01:05:20;31.10;;;28.30;;
37907;SDS011;23740;51.550;6.846;2023-05-07T01:07:48;31.33;;;28.60;;
37907;SDS011;23740;51.550;6.846;2023-05-07T01:10:17;31.30;;;28.63;;
37907;SDS011;23740;51.550;6.846;2023-05-07T01:12:45;30.80;;;28.25;;
37907;SDS011;23740;51.550;6.846;2023-05-07T01:17:43;31.05;;;28.63;;
37907;SDS011;23740;51.550;6.846;2023-05-07T01:20:11;29.77;;;27.45;;
37907;SDS011;23740;51.550;6.846;2023-05-07T01:22:41;32.72;;;29.92;;
37907;SDS011;23740;51.550;6.846;2023-05-07T01:25:10;31.45;;;28.73;;
37907;SDS011;23740;51.550;6.846;2023-05-07T01:27:38;31.50;;;28.75;;
37907;SDS011;23740;51.550;6.846;2023-05-07T01:30:06;32.10;;;29.20;;
37907;SDS011;23740;51.550;6.846;2023-05-07T01:35:05;31.40;;;28.58;;
37907;SDS011;23740;51.550;6.846;2023-05-07T01:37:35;31.15;;;28.52;;
37907;SDS011;23740;51.550;6.846;2023-05-07T01:40:05;31.73;;;28.92;;
37907;SDS011;23740;51.550;6.846;2023-05-07T01:42:34;31.80;;;29.13;;
37907;SDS011;23740;51.550;6.846;2023-05-07T01:45:03;31.23;;;28.38;;
37907;SDS011;23740;51.550;6.846;2023-05-07T01:49:59;30.35;;;27.75;;
37907;SDS011;23740;51.550;6.846;2023-05-07T01:52:27;30.70;;;28.23;;
37907;SDS011;23740;51.550;6.846;2023-05-07T01:54:55;32.67;;;29.90;;
37907;SDS011;23740;51.550;6.846;2023-05-07T01:57:24;32.20;;;29.45;;
37907;SDS011;23740;51.550;6.846;2023-05-07T02:02:20;32.03;;;29.15;;
37907;SDS011;23740;51.550;6.846;2023-05-07T02:04:48;31.75;;;29.10;;
37907;SDS011;23740;51.550;6.846;2023-05-07T02:07:15;33.65;;;30.55;;
37907;SDS011;23740;51.550;6.846;2023-05-07T02:09:43;35.53;;;31.70;;
37907;SDS011;23740;51.550;6.846;2023-05-07T02:12:11;33.47;;;30.58;;
37907;SDS011;23740;51.550;6.846;2023-05-07T02:14:40;34.17;;;31.08;;
37907;SDS011;23740;51.550;6.846;2023-05-07T02:17:08;33.63;;;30.63;;
37907;SDS011;23740;51.550;6.846;2023-05-07T02:19:36;33.33;;;30.27;;
37907;SDS011;23740;51.550;6.846;2023-05-07T02:22:04;33.88;;;30.80;;
37907;SDS011;23740;51.550;6.846;2023-05-07T02:24:32;33.22;;;30.33;;
37907;SDS011;23740;51.550;6.846;2023-05-07T02:26:59;34.67;;;31.58;;
37907;SDS011;23740;51.550;6.846;2023-05-07T02:29:28;34.22;;;31.02;;
37907;SDS011;23740;51.550;6.846;2023-05-07T02:31:57;35.92;;;32.83;;
37907;SDS011;23740;51.550;6.846;2023-05-07T02:34:25;34.88;;;31.38;;
37907;SDS011;23740;51.550;6.846;2023-05-07T02:36:54;33.42;;;30.33;;
37907;SDS011;23740;51.550;6.846;2023-05-07T02:39:21;34.83;;;31.77;;
37907;SDS011;23740;51.550;6.846;2023-05-07T02:41:49;35.35;;;32.08;;
37907;SDS011;23740;51.550;6.846;2023-05-07T02:44:17;36.88;;;33.03;;
37907;SDS011;23740;51.550;6.846;2023-05-07T02:46:45;37.08;;;33.63;;
37907;SDS011;23740;51.550;6.846;2023-05-07T02:49:14;34.88;;;31.85;;
37907;SDS011;23740;51.550;6.846;2023-05-07T02:54:09;34.30;;;31.13;;
37907;SDS011;23740;51.550;6.846;2023-05-07T02:56:37;36.78;;;33.38;;
37907;SDS011;23740;51.550;6.846;2023-05-07T02:59:05;36.80;;;33.40;;
37907;SDS011;23740;51.550;6.846;2023-05-07T03:01:32;37.42;;;34.10;;
37907;SDS011;23740;51.550;6.846;2023-05-07T03:04:00;35.63;;;32.45;;
37907;SDS011;23740;51.550;6.846;2023-05-07T03:06:30;38.15;;;34.38;;
37907;SDS011;23740;51.550;6.846;2023-05-07T03:11:25;35.60;;;32.13;;
37907;SDS011;23740;51.550;6.846;2023-05-07T03:13:53;37.90;;;34.50;;
37907;SDS011;23740;51.550;6.846;2023-05-07T03:16:20;37.67;;;34.25;;
37907;SDS011;23740;51.550;6.846;2023-05-07T03:18:48;35.92;;;32.53;;
37907;SDS011;23740;51.550;6.846;2023-05-07T03:21:16;36.83;;;33.35;;
37907;SDS011;23740;51.550;6.846;2023-05-07T03:23:45;36.35;;;32.80;;
37907;SDS011;23740;51.550;6.846;2023-05-07T03:26:13;35.00;;;31.60;;
37907;SDS011;23740;51.550;6.846;2023-05-07T03:28:41;34.85;;;31.77;;
37907;SDS011;23740;51.550;6.846;2023-05-07T03:31:08;36.15;;;32.65;;
37907;SDS011;23740;51.550;6.846;2023-05-07T03:33:38;35.25;;;31.65;;
37907;SDS011;23740;51.550;6.846;2023-05-07T03:36:17;37.08;;;33.67;;
37907;SDS011;23740;51.550;6.846;2023-05-07T03:38:46;35.92;;;32.78;;
37907;SDS011;23740;51.550;6.846;2023-05-07T03:41:16;35.40;;;31.98;;
37907;SDS011;23740;51.550;6.846;2023-05-07T03:43:44;37.58;;;33.88;;
37907;SDS011;23740;51.550;6.846;2023-05-07T03:46:12;38.03;;;34.20;;
37907;SDS011;23740;51.550;6.846;2023-05-07T03:48:39;38.22;;;34.25;;
37907;SDS011;23740;51.550;6.846;2023-05-07T03:51:07;37.58;;;33.80;;
37907;SDS011;23740;51.550;6.846;2023-05-07T03:53:35;35.13;;;31.50;;
37907;SDS011;23740;51.550;6.846;2023-05-07T03:56:04;36.85;;;33.45;;
37907;SDS011;23740;51.550;6.846;2023-05-07T03:58:32;36.75;;;33.40;;
37907;SDS011;23740;51.550;6.846;2023-05-07T04:01:00;36.45;;;33.05;;
37907;SDS011;23740;51.550;6.846;2023-05-07T04:03:29;37.10;;;33.67;;
37907;SDS011;23740;51.550;6.846;2023-05-07T04:05:57;37.67;;;34.05;;
37907;SDS011;23740;51.550;6.846;2023-05-07T04:08:24;39.08;;;35.15;;
37907;SDS011;23740;51.550;6.846;2023-05-07T04:10:54;37.92;;;34.20;;
37907;SDS011;23740;51.550;6.846;2023-05-07T04:13:24;37.95;;;34.05;;
37907;SDS011;23740;51.550;6.846;2023-05-07T04:15:52;36.97;;;33.15;;
37907;SDS011;23740;51.550;6.846;2023-05-07T04:18:21;36.17;;;32.72;;
37907;SDS011;23740;51.550;6.846;2023-05-07T04:20:49;36.95;;;33.15;;
37907;SDS011;23740;51.550;6.846;2023-05-07T04:23:17;36.83;;;33.08;;
37907;SDS011;23740;51.550;6.846;2023-05-07T04:25:45;36.58;;;32.65;;
37907;SDS011;23740;51.550;6.846;2023-05-07T04:28:13;38.00;;;34.25;;
37907;SDS011;23740;51.550;6.846;2023-05-07T04:30:42;37.22;;;33.60;;
37907;SDS011;23740;51.550;6.846;2023-05-07T04:33:10;37.13;;;33.50;;
37907;SDS011;23740;51.550;6.846;2023-05-07T04:35:38;35.20;;;31.73;;
37907;SDS011;23740;51.550;6.846;2023-05-07T04:38:06;34.53;;;31.10;;
37907;SDS011;23740;51.550;6.846;2023-05-07T04:40:35;35.88;;;32.58;;
37907;SDS011;23740;51.550;6.846;2023-05-07T04:43:03;35.20;;;31.90;;
37907;SDS011;23740;51.550;6.846;2023-05-07T04:45:30;37.10;;;33.67;;
37907;SDS011;23740;51.550;6.846;2023-05-07T04:48:00;35.75;;;32.33;;
37907;SDS011;23740;51.550;6.846;2023-05-07T04:50:28;35.75;;;32.25;;
37907;SDS011;23740;51.550;6.846;2023-05-07T04:52:56;34.92;;;31.67;;
37907;SDS011;23740;51.550;6.846;2023-05-07T04:55:24;36.42;;;32.90;;
37907;SDS011;23740;51.550;6.846;2023-05-07T04:57:54;34.60;;;31.58;;
37907;SDS011;23740;51.550;6.846;2023-05-07T05:00:21;33.92;;;30.75;;
37907;SDS011;23740;51.550;6.846;2023-05-07T05:02:49;33.83;;;30.73;;
37907;SDS011;23740;51.550;6.846;2023-05-07T05:05:19;34.47;;;31.38;;
37907;SDS011;23740;51.550;6.846;2023-05-07T05:07:47;33.47;;;30.48;;
37907;SDS011;23740;51.550;6.846;2023-05-07T05:10:15;32.28;;;29.13;;
37907;SDS011;23740;51.550;6.846;2023-05-07T05:12:43;31.38;;;28.67;;
37907;SDS011;23740;51.550;6.846;2023-05-07T05:15:11;31.40;;;28.73;;
37907;SDS011;23740;51.550;6.846;2023-05-07T05:17:39;31.03;;;28.40;;
37907;SDS011;23740;51.550;6.846;2023-05-07T05:20:07;31.25;;;28.35;;
37907;SDS011;23740;51.550;6.846;2023-05-07T05:22:38;30.58;;;27.67;;
37907;SDS011;23740;51.550;6.846;2023-05-07T05:25:06;30.45;;;27.92;;
37907;SDS011;23740;51.550;6.846;2023-05-07T05:27:34;30.55;;;27.75;;
37907;SDS011;23740;51.550;6.846;2023-05-07T05:30:03;33.08;;;29.88;;
37907;SDS011;23740;51.550;6.846;2023-05-07T05:32:33;32.03;;;29.10;;
37907;SDS011;23740;51.550;6.846;2023-05-07T05:35:00;30.73;;;28.17;;
37907;SDS011;23740;51.550;6.846;2023-05-07T05:37:28;31.88;;;29.17;;
37907;SDS011;23740;51.550;6.846;2023-05-07T05:39:58;31.02;;;28.35;;
37907;SDS011;23740;51.550;6.846;2023-05-07T05:42:26;31.90;;;29.02;;
37907;SDS011;23740;51.550;6.846;2023-05-07T05:44:54;31.60;;;28.50;;
37907;SDS011;23740;51.550;6.846;2023-05-07T05:47:22;31.52;;;28.83;;
37907;SDS011;23740;51.550;6.846;2023-05-07T05:49:50;31.83;;;29.15;;
37907;SDS011;23740;51.550;6.846;2023-05-07T05:52:18;32.47;;;29.33;;
37907;SDS011;23740;51.550;6.846;2023-05-07T05:54:46;31.85;;;29.05;;
37907;SDS011;23740;51.550;6.846;2023-05-07T05:57:15;31.75;;;29.05;;
37907;SDS011;23740;51.550;6.846;2023-05-07T05:59:43;31.02;;;28.50;;
37907;SDS011;23740;51.550;6.846;2023-05-07T06:02:11;29.50;;;27.20;;
37907;SDS011;23740;51.550;6.846;2023-05-07T06:04:39;29.55;;;27.15;;
37907;SDS011;23740;51.550;6.846;2023-05-07T06:07:07;30.60;;;28.23;;
37907;SDS011;23740;51.550;6.846;2023-05-07T06:09:35;30.50;;;27.83;;
37907;SDS011;23740;51.550;6.846;2023-05-07T06:12:02;28.00;;;25.85;;
37907;SDS011;23740;51.550;6.846;2023-05-07T06:14:32;28.00;;;26.00;;
37907;SDS011;23740;51.550;6.846;2023-05-07T06:16:59;27.48;;;25.48;;
37907;SDS011;23740;51.550;6.846;2023-05-07T06:19:28;26.93;;;24.93;;
37907;SDS011;23740;51.550;6.846;2023-05-07T06:21:55;28.38;;;25.23;;
37907;SDS011;23740;51.550;6.846;2023-05-07T06:24:23;26.05;;;24.13;;
37907;SDS011;23740;51.550;6.846;2023-05-07T06:26:51;27.92;;;25.80;;
37907;SDS011;23740;51.550;6.846;2023-05-07T06:29:19;24.98;;;23.27;;
37907;SDS011;23740;51.550;6.846;2023-05-07T06:31:49;26.92;;;25.02;;
37907;SDS011;23740;51.550;6.846;2023-05-07T06:34:17;24.80;;;23.20;;
37907;SDS011;23740;51.550;6.846;2023-05-07T06:36:45;27.05;;;25.05;;
37907;SDS011;23740;51.550;6.846;2023-05-07T06:39:12;26.27;;;24.10;;
37907;SDS011;23740;51.550;6.846;2023-05-07T06:41:40;26.08;;;23.92;;
37907;SDS011;23740;51.550;6.846;2023-05-07T06:44:08;25.73;;;23.63;;
37907;SDS011;23740;51.550;6.846;2023-05-07T06:46:36;25.00;;;23.02;;
37907;SDS011;23740;51.550;6.846;2023-05-07T06:49:05;24.60;;;22.90;;
37907;SDS011;23740;51.550;6.846;2023-05-07T06:51:33;25.52;;;23.80;;
37907;SDS011;23740;51.550;6.846;2023-05-07T06:54:01;24.63;;;22.90;;
37907;SDS011;23740;51.550;6.846;2023-05-07T06:56:30;23.80;;;22.20;;
37907;SDS011;23740;51.550;6.846;2023-05-07T06:58:59;24.00;;;22.00;;
37907;SDS011;23740;51.550;6.846;2023-05-07T07:01:29;23.23;;;21.73;;
37907;SDS011;23740;51.550;6.846;2023-05-07T07:03:57;22.58;;;20.83;;
37907;SDS011;23740;51.550;6.846;2023-05-07T07:06:27;21.52;;;20.17;;
37907;SDS011;23740;51.550;6.846;2023-05-07T07:08:55;22.08;;;20.58;;
37907;SDS011;23740;51.550;6.846;2023-05-07T07:11:23;21.98;;;20.48;;
37907;SDS011;23740;51.550;6.846;2023-05-07T07:13:51;22.40;;;20.98;;
37907;SDS011;23740;51.550;6.846;2023-05-07T07:16:20;22.48;;;20.98;;
37907;SDS011;23740;51.550;6.846;2023-05-07T07:18:48;22.10;;;20.43;;
37907;SDS011;23740;51.550;6.846;2023-05-07T07:21:16;22.10;;;20.25;;
37907;SDS011;23740;51.550;6.846;2023-05-07T07:23:45;22.08;;;20.65;;
37907;SDS011;23740;51.550;6.846;2023-05-07T07:26:13;22.17;;;20.60;;
37907;SDS011;23740;51.550;6.846;2023-05-07T07:28:44;21.42;;;20.17;;
37907;SDS011;23740;51.550;6.846;2023-05-07T07:31:12;21.60;;;20.30;;
37907;SDS011;23740;51.550;6.846;2023-05-07T07:33:41;22.10;;;20.70;;
37907;SDS011;23740;51.550;6.846;2023-05-07T07:36:09;21.23;;;19.88;;
37907;SDS011;23740;51.550;6.846;2023-05-07T07:38:37;22.10;;;20.70;;
37907;SDS011;23740;51.550;6.846;2023-05-07T07:41:07;22.13;;;20.73;;
37907;SDS011;23740;51.550;6.846;2023-05-07T07:43:35;21.55;;;20.17;;
37907;SDS011;23740;51.550;6.846;2023-05-07T07:46:07;22.25;;;20.77;;
37907;SDS011;23740;51.550;6.846;2023-05-07T07:48:35;21.15;;;19.95;;
37907;SDS011;23740;51.550;6.846;2023-05-07T07:51:03;22.10;;;20.55;;
37907;SDS011;23740;51.550;6.846;2023-05-07T07:53:31;21.37;;;20.07;;
37907;SDS011;23740;51.550;6.846;2023-05-07T07:55:59;21.42;;;20.13;;
37907;SDS011;23740;51.550;6.846;2023-05-07T07:58:31;21.70;;;20.33;;
37907;SDS011;23740;51.550;6.846;2023-05-07T08:00:59;20.80;;;19.60;;
37907;SDS011;23740;51.550;6.846;2023-05-07T08:03:27;21.10;;;19.73;;
37907;SDS011;23740;51.550;6.846;2023-05-07T08:05:58;21.20;;;19.85;;
37907;SDS011;23740;51.550;6.846;2023-05-07T08:08:26;21.57;;;20.33;;
37907;SDS011;23740;51.550;6.846;2023-05-07T08:10:54;20.52;;;19.13;;
37907;SDS011;23740;51.550;6.846;2023-05-07T08:13:21;21.23;;;19.77;;
37907;SDS011;23740;51.550;6.846;2023-05-07T08:15:51;20.93;;;19.57;;
37907;SDS011;23740;51.550;6.846;2023-05-07T08:18:18;20.65;;;19.50;;
37907;SDS011;23740;51.550;6.846;2023-05-07T08:20:46;21.42;;;19.77;;
37907;SDS011;23740;51.550;6.846;2023-05-07T08:23:14;20.98;;;19.70;;
37907;SDS011;23740;51.550;6.846;2023-05-07T08:25:42;19.77;;;18.57;;
37907;SDS011;23740;51.550;6.846;2023-05-07T08:28:10;20.27;;;18.98;;
37907;SDS011;23740;51.550;6.846;2023-05-07T08:30:37;20.00;;;18.90;;
37907;SDS011;23740;51.550;6.846;2023-05-07T08:33:08;21.67;;;20.40;;
37907;SDS011;23740;51.550;6.846;2023-05-07T08:35:36;20.88;;;19.67;;
37907;SDS011;23740;51.550;6.846;2023-05-07T08:38:04;21.30;;;20.10;;
37907;SDS011;23740;51.550;6.846;2023-05-07T08:40:34;20.00;;;18.50;;
37907;SDS011;23740;51.550;6.846;2023-05-07T08:43:05;20.38;;;19.17;;
37907;SDS011;23740;51.550;6.846;2023-05-07T08:48:02;20.60;;;19.33;;
37907;SDS011;23740;51.550;6.846;2023-05-07T08:50:32;20.20;;;19.10;;
37907;SDS011;23740;51.550;6.846;2023-05-07T08:53:02;20.70;;;19.40;;
37907;SDS011;23740;51.550;6.846;2023-05-07T08:55:30;20.33;;;19.23;;
37907;SDS011;23740;51.550;6.846;2023-05-07T08:57:59;20.45;;;19.25;;
37907;SDS011;23740;51.550;6.846;2023-05-07T09:00:27;19.70;;;18.60;;
37907;SDS011;23740;51.550;6.846;2023-05-07T09:02:55;20.38;;;19.00;;
37907;SDS011;23740;51.550;6.846;2023-05-07T09:05:23;20.25;;;18.80;;
37907;SDS011;23740;51.550;6.846;2023-05-07T09:07:52;20.42;;;19.25;;
37907;SDS011;23740;51.550;6.846;2023-05-07T09:10:23;20.98;;;19.55;;
37907;SDS011;23740;51.550;6.846;2023-05-07T09:12:51;21.35;;;20.05;;
37907;SDS011;23740;51.550;6.846;2023-05-07T09:15:19;21.33;;;19.90;;
37907;SDS011;23740;51.550;6.846;2023-05-07T09:17:47;21.90;;;20.60;;
37907;SDS011;23740;51.550;6.846;2023-05-07T09:20:15;21.30;;;19.77;;
37907;SDS011;23740;51.550;6.846;2023-05-07T09:22:44;21.63;;;20.13;;
37907;SDS011;23740;51.550;6.846;2023-05-07T09:25:13;21.00;;;19.43;;
37907;SDS011;23740;51.550;6.846;2023-05-07T09:27:41;21.10;;;19.73;;
37907;SDS011;23740;51.550;6.846;2023-05-07T09:30:09;21.20;;;19.90;;
37907;SDS011;23740;51.550;6.846;2023-05-07T09:32:38;20.75;;;19.20;;
37907;SDS011;23740;51.550;6.846;2023-05-07T09:35:06;21.42;;;20.05;;
37907;SDS011;23740;51.550;6.846;2023-05-07T09:37:42;21.50;;;20.10;;
37907;SDS011;23740;51.550;6.846;2023-05-07T09:40:12;21.60;;;20.30;;
37907;SDS011;23740;51.550;6.846;2023-05-07T09:42:47;21.13;;;19.83;;
37907;SDS011;23740;51.550;6.846;2023-05-07T09:45:15;21.23;;;19.92;;
37907;SDS011;23740;51.550;6.846;2023-05-07T09:47:44;21.52;;;20.23;;
37907;SDS011;23740;51.550;6.846;2023-05-07T09:50:13;21.65;;;20.35;;
37907;SDS011;23740;51.550;6.846;2023-05-07T09:52:43;21.65;;;20.08;;
37907;SDS011;23740;51.550;6.846;2023-05-07T09:55:12;22.00;;;20.60;;
37907;SDS011;23740;51.550;6.846;2023-05-07T09:57:41;22.08;;;20.77;;
37907;SDS011;23740;51.550;6.846;2023-05-07T10:00:09;20.90;;;19.55;;
37907;SDS011;23740;51.550;6.846;2023-05-07T10:02:38;20.88;;;19.63;;
37907;SDS011;23740;51.550;6.846;2023-05-07T10:05:12;22.02;;;20.42;;
37907;SDS011;23740;51.550;6.846;2023-05-07T10:07:41;20.83;;;19.52;;
37907;SDS011;23740;51.550;6.846;2023-05-07T10:10:09;21.55;;;20.08;;
37907;SDS011;23740;51.550;6.846;2023-05-07T10:12:39;20.55;;;19.35;;
37907;SDS011;23740;51.550;6.846;2023-05-07T10:15:08;20.88;;;19.60;;
37907;SDS011;23740;51.550;6.846;2023-05-07T10:17:38;19.70;;;18.40;;
37907;SDS011;23740;51.550;6.846;2023-05-07T10:20:07;20.02;;;18.83;;
37907;SDS011;23740;51.550;6.846;2023-05-07T10:22:37;19.98;;;18.80;;
37907;SDS011;23740;51.550;6.846;2023-05-07T10:25:06;19.40;;;18.05;;
37907;SDS011;23740;51.550;6.846;2023-05-07T10:27:39;19.48;;;18.27;;
37907;SDS011;23740;51.550;6.846;2023-05-07T10:30:13;19.45;;;18.25;;
37907;SDS011;23740;51.550;6.846;2023-05-07T10:32:45;19.08;;;17.88;;
37907;SDS011;23740;51.550;6.846;2023-05-07T10:35:17;19.65;;;18.48;;
37907;SDS011;23740;51.550;6.846;2023-05-07T10:37:47;19.50;;;18.30;;
37907;SDS011;23740;51.550;6.846;2023-05-07T10:40:15;19.65;;;18.40;;
37907;SDS011;23740;51.550;6.846;2023-05-07T10:42:55;18.73;;;17.52;;
37907;SDS011;23740;51.550;6.846;2023-05-07T10:45:24;18.90;;;17.90;;
37907;SDS011;23740;51.550;6.846;2023-05-07T10:48:08;18.10;;;17.10;;
37907;SDS011;23740;51.550;6.846;2023-05-07T10:50:41;18.38;;;17.38;;
37907;SDS011;23740;51.550;6.846;2023-05-07T10:56:23;18.85;;;17.80;;
37907;SDS011;23740;51.550;6.846;2023-05-07T10:59:07;18.50;;;17.40;;
37907;SDS011;23740;51.550;6.846;2023-05-07T11:02:08;19.15;;;18.08;;
37907;SDS011;23740;51.550;6.846;2023-05-07T11:04:37;18.50;;;17.38;;
37907;SDS011;23740;51.550;6.846;2023-05-07T11:10:03;19.65;;;18.48;;
37907;SDS011;23740;51.550;6.846;2023-05-07T11:12:48;20.40;;;19.20;;
37907;SDS011;23740;51.550;6.846;2023-05-07T11:18:05;19.45;;;18.35;;
37907;SDS011;23740;51.550;6.846;2023-05-07T11:20:44;20.77;;;19.50;;
37907;SDS011;23740;51.550;6.846;2023-05-07T11:26:14;20.90;;;19.65;;
37907;SDS011;23740;51.550;6.846;2023-05-07T11:28:42;21.05;;;19.75;;
37907;SDS011;23740;51.550;6.846;2023-05-07T11:31:11;20.15;;;18.95;;
37907;SDS011;23740;51.550;6.846;2023-05-07T11:33:39;20.38;;;18.92;;
37907;SDS011;23740;51.550;6.846;2023-05-07T11:36:07;20.80;;;19.50;;
37907;SDS011;23740;51.550;6.846;2023-05-07T11:38:36;20.80;;;19.50;;
37907;SDS011;23740;51.550;6.846;2023-05-07T11:41:05;20.70;;;19.45;;
37907;SDS011;23740;51.550;6.846;2023-05-07T11:43:33;19.13;;;18.02;;
37907;SDS011;23740;51.550;6.846;2023-05-07T11:46:05;19.23;;;18.02;;
37907;SDS011;23740;51.550;6.846;2023-05-07T11:48:35;19.88;;;18.67;;
37907;SDS011;23740;51.550;6.846;2023-05-07T11:51:04;19.83;;;18.63;;
37907;SDS011;23740;51.550;6.846;2023-05-07T11:53:35;20.48;;;19.05;;
37907;SDS011;23740;51.550;6.846;2023-05-07T11:56:07;19.08;;;17.88;;
37907;SDS011;23740;51.550;6.846;2023-05-07T11:58:35;19.55;;;18.45;;
37907;SDS011;23740;51.550;6.846;2023-05-07T12:01:03;19.25;;;18.25;;
37907;SDS011;23740;51.550;6.846;2023-05-07T12:03:31;18.48;;;17.48;;
37907;SDS011;23740;51.550;6.846;2023-05-07T12:06:03;20.00;;;18.52;;
37907;SDS011;23740;51.550;6.846;2023-05-07T12:08:33;20.48;;;19.15;;
37907;SDS011;23740;51.550;6.846;2023-05-07T12:11:03;19.52;;;18.42;;
37907;SDS011;23740;51.550;6.846;2023-05-07T12:13:34;18.70;;;17.70;;
37907;SDS011;23740;51.550;6.846;2023-05-07T12:16:02;18.30;;;17.30;;
37907;SDS011;23740;51.550;6.846;2023-05-07T12:18:32;19.75;;;18.50;;
37907;SDS011;23740;51.550;6.846;2023-05-07T12:21:02;19.50;;;18.40;;
37907;SDS011;23740;51.550;6.846;2023-05-07T12:23:32;19.88;;;18.58;;
37907;SDS011;23740;51.550;6.846;2023-05-07T12:26:01;20.20;;;18.88;;
37907;SDS011;23740;51.550;6.846;2023-05-07T12:28:36;19.10;;;17.90;;
37907;SDS011;23740;51.550;6.846;2023-05-07T12:31:05;19.25;;;17.90;;
37907;SDS011;23740;51.550;6.846;2023-05-07T12:33:33;19.27;;;18.15;;
37907;SDS011;23740;51.550;6.846;2023-05-07T12:36:05;20.20;;;19.10;;
37907;SDS011;23740;51.550;6.846;2023-05-07T12:38:35;20.30;;;19.15;;
37907;SDS011;23740;51.550;6.846;2023-05-07T12:41:04;19.48;;;18.38;;
37907;SDS011;23740;51.550;6.846;2023-05-07T12:43:33;20.35;;;19.25;;
37907;SDS011;23740;51.550;6.846;2023-05-07T12:46:01;20.40;;;19.30;;
37907;SDS011;23740;51.550;6.846;2023-05-07T12:48:31;19.73;;;18.42;;
37907;SDS011;23740;51.550;6.846;2023-05-07T12:50:59;20.58;;;19.45;;
37907;SDS011;23740;51.550;6.846;2023-05-07T12:53:29;19.27;;;18.13;;
37907;SDS011;23740;51.550;6.846;2023-05-07T12:55:58;19.23;;;18.13;;
37907;SDS011;23740;51.550;6.846;2023-05-07T12:58:26;19.52;;;18.30;;
37907;SDS011;23740;51.550;6.846;2023-05-07T13:00:55;20.40;;;19.10;;
37907;SDS011;23740;51.550;6.846;2023-05-07T13:03:27;19.73;;;18.42;;
37907;SDS011;23740;51.550;6.846;2023-05-07T13:05:57;20.73;;;19.50;;
37907;SDS011;23740;51.550;6.846;2023-05-07T13:08:26;21.30;;;20.10;;
37907;SDS011;23740;51.550;6.846;2023-05-07T13:10:57;20.95;;;19.75;;
37907;SDS011;23740;51.550;6.846;2023-05-07T13:13:26;20.85;;;19.55;;
37907;SDS011;23740;51.550;6.846;2023-05-07T13:15:57;21.80;;;20.30;;
37907;SDS011;23740;51.550;6.846;2023-05-07T13:18:26;21.92;;;20.63;;
37907;SDS011;23740;51.550;6.846;2023-05-07T13:20:56;22.40;;;20.90;;
37907;SDS011;23740;51.550;6.846;2023-05-07T13:23:24;21.65;;;20.35;;
37907;SDS011;23740;51.550;6.846;2023-05-07T13:25:53;23.37;;;21.87;;
37907;SDS011;23740;51.550;6.846;2023-05-07T13:28:22;21.30;;;20.08;;
37907;SDS011;23740;51.550;6.846;2023-05-07T13:30:50;21.48;;;20.23;;
37907;SDS011;23740;51.550;6.846;2023-05-07T13:33:18;21.40;;;20.00;;
37907;SDS011;23740;51.550;6.846;2023-05-07T13:35:46;22.27;;;20.87;;
37907;SDS011;23740;51.550;6.846;2023-05-07T13:38:14;23.20;;;21.67;;
37907;SDS011;23740;51.550;6.846;2023-05-07T13:40:42;22.40;;;20.88;;
37907;SDS011;23740;51.550;6.846;2023-05-07T13:43:11;22.95;;;21.35;;
37907;SDS011;23740;51.550;6.846;2023-05-07T13:45:39;21.25;;;19.92;;
37907;SDS011;23740;51.550;6.846;2023-05-07T13:48:07;22.47;;;21.07;;
37907;SDS011;23740;51.550;6.846;2023-05-07T13:50:35;23.60;;;22.00;;
37907;SDS011;23740;51.550;6.846;2023-05-07T13:53:03;23.48;;;21.88;;
37907;SDS011;23740;51.550;6.846;2023-05-07T13:55:31;23.13;;;21.73;;
37907;SDS011;23740;51.550;6.846;2023-05-07T13:58:00;22.00;;;20.58;;
37907;SDS011;23740;51.550;6.846;2023-05-07T14:00:34;22.45;;;20.90;;
37907;SDS011;23740;51.550;6.846;2023-05-07T14:03:01;22.00;;;20.50;;
37907;SDS011;23740;51.550;6.846;2023-05-07T14:05:30;21.50;;;20.00;;
37907;SDS011;23740;51.550;6.846;2023-05-07T14:07:58;19.90;;;18.50;;
37907;SDS011;23740;51.550;6.846;2023-05-07T14:10:25;22.33;;;20.75;;
37907;SDS011;23740;51.550;6.846;2023-05-07T14:12:53;22.02;;;20.52;;
37907;SDS011;23740;51.550;6.846;2023-05-07T14:15:21;22.17;;;20.55;;
37907;SDS011;23740;51.550;6.846;2023-05-07T14:17:50;23.00;;;21.50;;
37907;SDS011;23740;51.550;6.846;2023-05-07T14:20:18;21.98;;;20.58;;
37907;SDS011;23740;51.550;6.846;2023-05-07T14:22:47;22.63;;;20.80;;
37907;SDS011;23740;51.550;6.846;2023-05-07T14:25:15;21.73;;;20.35;;
37907;SDS011;23740;51.550;6.846;2023-05-07T14:27:44;21.33;;;19.92;;
37907;SDS011;23740;51.550;6.846;2023-05-07T14:30:12;22.25;;;20.75;;
37907;SDS011;23740;51.550;6.846;2023-05-07T14:32:40;21.83;;;20.38;;
37907;SDS011;23740;51.550;6.846;2023-05-07T14:35:09;23.60;;;21.97;;
37907;SDS011;23740;51.550;6.846;2023-05-07T14:37:38;22.48;;;20.92;;
37907;SDS011;23740;51.550;6.846;2023-05-07T14:40:06;23.33;;;21.70;;
37907;SDS011;23740;51.550;6.846;2023-05-07T14:42:35;23.60;;;21.90;;
37907;SDS011;23740;51.550;6.846;2023-05-07T14:45:03;23.45;;;21.75;;
37907;SDS011;23740;51.550;6.846;2023-05-07T14:49:59;23.17;;;21.50;;
37907;SDS011;23740;51.550;6.846;2023-05-07T14:52:29;24.30;;;22.60;;
37907;SDS011;23740;51.550;6.846;2023-05-07T14:54:57;24.80;;;22.83;;
37907;SDS011;23740;51.550;6.846;2023-05-07T14:57:25;24.58;;;22.77;;
37907;SDS011;23740;51.550;6.846;2023-05-07T14:59:53;24.90;;;23.05;;
37907;SDS011;23740;51.550;6.846;2023-05-07T15:02:20;24.70;;;23.00;;
37907;SDS011;23740;51.550;6.846;2023-05-07T15:04:48;24.13;;;22.53;;